Time;durP1;ratioP1;P1;durP2;ratioP2;P2;SDS_P1;SDS_P2;PMS_P1;PMS_P2;Temp;Humidity;BMP_temperature;BMP_pressure;BME280_temperature;BME280_humidity;BME280_pressure;Samples;Min_cycle;Max_cycle;Signal;HPM_P1;HPM_P2
2022/02/19 00:00:53;;;;;;;22.10;13.73;;;11.60;96.70;;;;;;5104524;27;20036;-78
2022/02/19 00:03:21;;;;;;;19.23;12.68;;;11.60;96.70;;;;;;5102314;27;20461;-78
2022/02/19 00:05:50;;;;;;;17.00;12.75;;;11.50;96.70;;;;;;5120836;27;20052;-78
2022/02/19 00:08:18;;;;;;;18.35;11.00;;;11.50;96.70;;;;;;5109732;27;20315;-78
2022/02/19 00:10:47;;;;;;;21.25;12.65;;;11.60;96.70;;;;;;5107753;27;20046;-79
2022/02/19 00:13:16;;;;;;;16.38;9.95;;;11.50;96.70;;;;;;5087968;28;20050;-79
2022/02/19 00:15:47;;;;;;;15.07;10.38;;;11.50;96.70;;;;;;5106380;27;20039;-79
2022/02/19 00:18:15;;;;;;;14.07;8.90;;;11.60;96.70;;;;;;5104543;27;20062;-79
2022/02/19 00:20:44;;;;;;;14.05;9.02;;;11.60;96.70;;;;;;5108241;27;20040;-79
2022/02/19 00:23:12;;;;;;;15.77;9.32;;;11.60;96.70;;;;;;5105481;27;20423;-79
2022/02/19 00:25:40;;;;;;;15.52;9.27;;;11.60;96.70;;;;;;5085678;28;20036;-79
2022/02/19 00:28:09;;;;;;;19.58;9.40;;;11.60;96.70;;;;;;5103589;27;20039;-81
2022/02/19 00:30:38;;;;;;;15.75;8.65;;;11.60;96.70;;;;;;5120916;27;20363;-81
2022/02/19 00:33:08;;;;;;;13.05;7.70;;;11.60;96.70;;;;;;5088353;28;20052;-81
2022/02/19 00:35:36;;;;;;;12.10;6.95;;;11.60;96.70;;;;;;5106885;27;20036;-81
2022/02/19 00:38:06;;;;;;;10.35;6.68;;;11.60;96.70;;;;;;5096844;27;20543;-80
2022/02/19 00:40:35;;;;;;;11.30;7.45;;;11.50;96.70;;;;;;5105712;27;20046;-81
2022/02/19 00:43:04;;;;;;;14.88;7.95;;;11.50;96.70;;;;;;5102890;27;20119;-81
2022/02/19 00:45:32;;;;;;;14.95;7.60;;;11.40;96.70;;;;;;5109184;27;20047;-81
2022/02/19 00:48:02;;;;;;;10.32;6.65;;;11.50;96.70;;;;;;5105696;27;20043;-80
2022/02/19 00:50:32;;;;;;;12.60;7.40;;;11.40;96.70;;;;;;5085452;27;20062;-79
2022/02/19 00:53:01;;;;;;;19.05;8.30;;;11.40;96.70;;;;;;5104438;27;20523;-79
2022/02/19 00:55:29;;;;;;;11.25;6.53;;;11.30;96.70;;;;;;5111856;27;20093;-80
2022/02/19 00:57:57;;;;;;;10.32;6.00;;;11.10;96.70;;;;;;5102127;27;20048;-79
2022/02/19 01:00:27;;;;;;;10.27;6.50;;;11.10;96.70;;;;;;5106979;27;20047;-79
2022/02/19 01:03:09;;;;;;;14.60;6.57;;;11.10;96.70;;;;;;5102505;27;20449;-79
2022/02/19 01:05:39;;;;;;;10.45;5.97;;;11.20;96.70;;;;;;5103523;27;20051;-79
2022/02/19 01:08:09;;;;;;;11.52;6.35;;;11.20;96.70;;;;;;5100454;27;20044;-79
2022/02/19 01:10:38;;;;;;;11.20;6.40;;;11.30;96.70;;;;;;5103387;27;20501;-79
2022/02/19 01:13:06;;;;;;;12.82;6.72;;;11.20;96.70;;;;;;5111230;27;20070;-79
2022/02/19 01:15:34;;;;;;;9.02;6.30;;;11.10;96.70;;;;;;5105007;27;20047;-79
2022/02/19 01:18:03;;;;;;;10.73;6.13;;;11.10;96.70;;;;;;5102526;27;20590;-79
2022/02/19 01:20:31;;;;;;;11.27;6.35;;;11.10;96.70;;;;;;5098320;27;20036;-79
2022/02/19 01:23:00;;;;;;;12.07;6.30;;;11.10;96.70;;;;;;5104183;27;20061;-79
2022/02/19 01:25:29;;;;;;;10.63;6.03;;;11.10;96.70;;;;;;5086595;28;20420;-79
2022/02/19 01:27:57;;;;;;;13.60;6.38;;;11.00;96.70;;;;;;5107681;27;20043;-80
2022/02/19 01:30:27;;;;;;;10.60;5.80;;;10.90;96.70;;;;;;5101670;27;20039;-80
2022/02/19 01:32:58;;;;;;;8.35;5.53;;;10.90;96.70;;;;;;5084740;27;20397;-80
2022/02/19 01:35:30;;;;;;;13.98;6.10;;;11.00;96.70;;;;;;5100962;27;20059;-80
2022/02/19 01:38:01;;;;;;;10.50;5.80;;;11.00;96.70;;;;;;5107776;27;20058;-80
2022/02/19 01:40:30;;;;;;;8.90;5.78;;;11.00;96.70;;;;;;5107910;27;20058;-80
2022/02/19 01:42:59;;;;;;;10.38;4.82;;;11.10;96.70;;;;;;5105117;27;20046;-80
2022/02/19 01:45:30;;;;;;;11.00;5.43;;;11.10;96.70;;;;;;5095728;27;20039;-80
2022/02/19 01:47:59;;;;;;;9.18;5.22;;;11.10;96.70;;;;;;5090389;27;20043;-80
2022/02/19 01:50:27;;;;;;;9.43;5.70;;;11.20;96.70;;;;;;5087069;27;20528;-80
2022/02/19 01:52:55;;;;;;;8.27;5.30;;;11.20;96.70;;;;;;5086676;27;20564;-80
2022/02/19 01:55:34;;;;;;;;;;;11.20;96.70;;;;;;5105751;27;20070;-80
2022/02/19 01:58:21;;;;;;;10.30;5.50;;;11.20;96.70;;;;;;5102759;27;19972;-80
2022/02/19 02:01:14;;;;;;;9.32;5.28;;;11.20;96.70;;;;;;5098604;27;20058;-80
2022/02/19 02:04:11;;;;;;;11.07;5.82;;;11.20;96.70;;;;;;5025196;28;20128;-80
2022/02/19 02:06:44;;;;;;;9.70;5.82;;;11.30;96.70;;;;;;5099268;27;20039;-80
2022/02/19 02:09:14;;;;;;;9.43;5.13;;;11.30;96.70;;;;;;5093652;27;20128;-80
2022/02/19 02:11:45;;;;;;;7.95;5.40;;;11.30;96.70;;;;;;5099664;27;20032;-80
2022/02/19 02:14:14;;;;;;;8.35;5.35;;;11.30;96.70;;;;;;5106025;27;20058;-80
2022/02/19 02:16:58;;;;;;;10.88;5.50;;;11.20;96.70;;;;;;5101159;27;20489;-80
2022/02/19 02:19:27;;;;;;;12.50;6.13;;;11.20;96.70;;;;;;5100235;28;20044;-80
2022/02/19 02:22:15;;;;;;;9.98;6.95;;;11.10;96.70;;;;;;5106347;27;20051;-80
2022/02/19 02:24:43;;;;;;;11.95;6.72;;;11.10;96.70;;;;;;5099137;28;20047;-80
2022/02/19 02:27:23;;;;;;;12.80;6.05;;;11.10;96.70;;;;;;5103916;27;20053;-80
2022/02/19 02:29:52;;;;;;;13.13;6.30;;;11.10;96.70;;;;;;5083108;27;20097;-80
2022/02/19 02:32:25;;;;;;;8.43;5.97;;;11.00;96.70;;;;;;5100257;28;20052;-80
2022/02/19 02:34:56;;;;;;;13.70;6.40;;;11.00;96.70;;;;;;5100764;27;20227;-80
2022/02/19 02:37:33;;;;;;;11.20;6.30;;;11.00;96.70;;;;;;5091680;28;20067;-80
2022/02/19 02:40:02;;;;;;;9.18;5.70;;;11.00;96.70;;;;;;5103814;27;20309;-80
2022/02/19 02:42:34;;;;;;;11.23;5.80;;;11.00;96.70;;;;;;5121102;27;20074;-80
2022/02/19 02:45:09;;;;;;;10.93;5.10;;;11.00;96.70;;;;;;5083901;27;20098;-80
2022/02/19 02:47:57;;;;;;;7.47;4.70;;;11.00;96.70;;;;;;5099022;27;20035;-80
2022/02/19 02:50:31;;;;;;;8.75;5.40;;;11.00;96.70;;;;;;5084155;28;20083;-80
2022/02/19 02:53:24;;;;;;;11.75;5.20;;;11.10;96.70;;;;;;5110335;27;20687;-80
2022/02/19 02:55:52;;;;;;;10.13;5.38;;;11.10;96.70;;;;;;5103831;28;20449;-81
2022/02/19 02:58:21;;;;;;;8.68;5.13;;;11.10;96.70;;;;;;5104131;28;20043;-81
2022/02/19 03:00:52;;;;;;;8.18;5.50;;;11.10;96.70;;;;;;5086562;28;20042;-81
2022/02/19 03:03:20;;;;;;;10.48;5.28;;;11.00;96.70;;;;;;5098672;28;20413;-82
2022/02/19 03:05:49;;;;;;;10.23;5.38;;;11.00;96.70;;;;;;5101642;28;20035;-81
2022/02/19 03:08:18;;;;;;;9.63;5.80;;;10.80;96.70;;;;;;5099847;28;20040;-80
2022/02/19 03:10:49;;;;;;;7.10;5.00;;;10.80;96.70;;;;;;5106825;27;20219;-80
2022/02/19 03:13:17;;;;;;;9.60;5.28;;;10.90;96.70;;;;;;5083931;28;20075;-79
2022/02/19 03:15:48;;;;;;;12.85;6.07;;;10.90;96.70;;;;;;5101435;28;20039;-80
2022/02/19 03:18:18;;;;;;;10.35;5.28;;;10.90;96.70;;;;;;5083394;28;20043;-79
2022/02/19 03:20:47;;;;;;;12.88;6.03;;;10.90;96.70;;;;;;5101823;27;20427;-78
2022/02/19 03:23:15;;;;;;;11.90;5.05;;;11.00;96.70;;;;;;5101027;28;20588;-80
2022/02/19 03:25:44;;;;;;;12.05;5.53;;;11.00;96.70;;;;;;5128894;27;20131;-79
2022/02/19 03:28:15;;;;;;;9.50;5.45;;;11.00;96.70;;;;;;5088760;28;20039;-79
2022/02/19 03:30:44;;;;;;;9.43;5.03;;;11.10;96.70;;;;;;5094231;28;20501;-79
2022/02/19 03:33:31;;;;;;;11.05;5.18;;;11.10;96.70;;;;;;5100893;28;20431;-79
2022/02/19 03:36:00;;;;;;;13.25;4.90;;;11.10;96.70;;;;;;5098061;27;20058;-79
2022/02/19 03:38:28;;;;;;;12.55;5.00;;;11.00;96.70;;;;;;5104171;28;20401;-79
2022/02/19 03:41:07;;;;;;;10.50;4.85;;;11.00;96.70;;;;;;5084317;28;20498;-79
2022/02/19 03:43:37;;;;;;;13.45;5.00;;;11.10;96.70;;;;;;5106277;28;20079;-79
2022/02/19 03:46:07;;;;;;;9.82;5.10;;;11.00;96.70;;;;;;5097066;28;20643;-79
2022/02/19 03:49:00;;;;;;;12.60;6.47;;;11.00;96.70;;;;;;5083801;28;20040;-79
2022/02/19 03:51:29;;;;;;;9.73;5.18;;;11.00;96.70;;;;;;5084993;28;20046;-79
2022/02/19 03:53:58;;;;;;;11.10;4.85;;;11.10;96.70;;;;;;5092204;28;20408;-79
2022/02/19 03:56:29;;;;;;;10.40;4.90;;;11.10;96.70;;;;;;5083464;28;20051;-79
2022/02/19 03:59:07;;;;;;;9.83;5.20;;;11.10;96.70;;;;;;5108386;27;20096;-79
2022/02/19 04:01:35;;;;;;;7.97;5.07;;;11.00;96.70;;;;;;5087389;28;20094;-79
2022/02/19 04:04:11;;;;;;;12.00;5.28;;;11.00;96.70;;;;;;5094979;28;20047;-79
2022/02/19 04:06:40;;;;;;;10.70;4.75;;;11.00;96.70;;;;;;5106080;27;20069;-79
2022/02/19 04:09:10;;;;;;;8.50;4.90;;;11.10;96.70;;;;;;5089026;27;20073;-79
2022/02/19 04:11:43;;;;;;;9.85;4.90;;;11.10;96.70;;;;;;5105563;27;20048;-79
2022/02/19 04:14:14;;;;;;;8.43;4.50;;;11.10;96.70;;;;;;5104787;27;20497;-79
2022/02/19 04:16:54;;;;;;;10.93;4.50;;;11.10;96.70;;;;;;5103870;27;20044;-79
2022/02/19 04:19:26;;;;;;;13.27;5.15;;;11.10;96.70;;;;;;5102638;27;20044;-79
2022/02/19 04:21:55;;;;;;;10.65;5.25;;;11.10;96.70;;;;;;5088964;27;20492;-79
2022/02/19 04:24:26;;;;;;;8.25;4.25;;;11.10;96.70;;;;;;5087716;27;20159;-79
2022/02/19 04:27:03;;;;;;;7.82;4.43;;;11.10;96.70;;;;;;5108117;27;20035;-79
2022/02/19 04:29:34;;;;;;;8.35;4.90;;;11.10;96.70;;;;;;5084653;28;20370;-80
2022/02/19 04:32:05;;;;;;;9.63;5.13;;;11.10;96.70;;;;;;5104117;27;20187;-80
2022/02/19 04:34:39;;;;;;;6.57;4.90;;;11.10;96.70;;;;;;5089135;28;20780;-80
2022/02/19 04:37:07;;;;;;;11.73;5.90;;;11.10;96.70;;;;;;5094068;28;20048;-80
2022/02/19 04:39:40;;;;;;;8.93;4.72;;;11.10;96.70;;;;;;5100504;27;20043;-79
2022/02/19 04:42:17;;;;;;;8.50;4.55;;;11.00;96.70;;;;;;5102452;27;20051;-79
2022/02/19 04:44:50;;;;;;;9.85;4.78;;;11.10;96.70;;;;;;5101865;27;20197;-79
2022/02/19 04:47:19;;;;;;;10.02;4.28;;;11.10;96.70;;;;;;5094120;27;20036;-80
2022/02/19 04:49:49;;;;;;;8.20;4.95;;;11.20;96.70;;;;;;5104205;27;20142;-79
2022/02/19 04:52:18;;;;;;;9.88;4.90;;;11.20;96.70;;;;;;5109987;27;20416;-79
2022/02/19 04:54:47;;;;;;;8.95;5.15;;;11.10;96.70;;;;;;5100644;27;20534;-79
2022/02/19 04:57:20;;;;;;;11.82;4.85;;;11.10;96.70;;;;;;5088232;28;20436;-79
2022/02/19 04:59:50;;;;;;;11.55;4.78;;;11.10;96.70;;;;;;5104032;27;20051;-79
2022/02/19 05:02:25;;;;;;;9.63;4.25;;;11.20;96.70;;;;;;5090510;28;20050;-79
2022/02/19 05:04:54;;;;;;;8.57;4.80;;;11.10;96.70;;;;;;5103855;27;20976;-80
2022/02/19 05:07:27;;;;;;;6.53;4.13;;;11.10;96.70;;;;;;5099290;27;20452;-79
2022/02/19 05:09:56;;;;;;;7.00;4.47;;;11.10;96.70;;;;;;5084937;27;20062;-79
2022/02/19 05:12:32;;;;;;;;;;;11.20;96.70;;;;;;5107772;27;20043;-80
2022/02/19 05:15:04;;;;;;;10.43;5.15;;;11.20;96.70;;;;;;5098950;27;20387;-81
2022/02/19 05:17:46;;;;;;;8.82;4.68;;;11.20;96.70;;;;;;5101970;27;20146;-80
2022/02/19 05:20:17;;;;;;;10.30;4.40;;;11.10;96.70;;;;;;5111353;27;20566;-79
2022/02/19 05:22:46;;;;;;;9.65;5.03;;;11.20;96.70;;;;;;5087680;27;20043;-79
2022/02/19 05:25:16;;;;;;;10.35;4.60;;;11.10;96.70;;;;;;5105905;27;20044;-80
2022/02/19 05:27:45;;;;;;;10.55;4.40;;;11.20;96.70;;;;;;5099375;27;20039;-79
2022/02/19 05:30:16;;;;;;;9.25;4.95;;;11.20;96.70;;;;;;5122972;27;20543;-80
2022/02/19 05:33:03;;;;;;;9.45;4.75;;;11.10;96.70;;;;;;5111750;27;20104;-79
2022/02/19 05:35:34;;;;;;;8.68;5.03;;;11.10;96.70;;;;;;5099864;27;20055;-80
2022/02/19 05:38:03;;;;;;;8.52;4.70;;;11.10;96.70;;;;;;5097818;27;20047;-79
2022/02/19 05:40:32;;;;;;;9.07;5.00;;;11.10;96.70;;;;;;5085771;27;20447;-79
2022/02/19 05:43:05;;;;;;;8.02;4.43;;;11.10;96.70;;;;;;5088211;28;20116;-79
2022/02/19 05:45:36;;;;;;;7.45;4.20;;;11.00;96.70;;;;;;5100276;27;20047;-80
2022/02/19 05:48:05;;;;;;;7.40;4.28;;;11.00;96.70;;;;;;5102902;27;20052;-80
2022/02/19 05:50:50;;;;;;;10.00;4.40;;;11.00;96.70;;;;;;5087575;28;20225;-80
2022/02/19 05:53:41;;;;;;;9.23;4.65;;;11.00;96.70;;;;;;5089222;27;20051;-80
2022/02/19 05:56:09;;;;;;;8.55;4.80;;;11.00;96.70;;;;;;5099437;28;20581;-80
2022/02/19 05:58:38;;;;;;;11.15;5.70;;;11.00;96.70;;;;;;5097016;27;20035;-79
2022/02/19 06:01:15;;;;;;;9.03;4.57;;;11.10;96.70;;;;;;5095298;27;20039;-80
2022/02/19 06:03:48;;;;;;;9.32;4.07;;;11.00;96.70;;;;;;5097411;27;20750;-80
2022/02/19 06:06:20;;;;;;;8.25;4.32;;;11.00;96.70;;;;;;5102825;27;20043;-80
2022/02/19 06:08:49;;;;;;;9.93;4.82;;;11.10;96.70;;;;;;5103055;27;20062;-79
2022/02/19 06:11:18;;;;;;;9.88;4.10;;;11.10;96.70;;;;;;5100924;27;20066;-80
2022/02/19 06:14:06;;;;;;;10.80;5.75;;;11.10;96.70;;;;;;5080330;28;20059;-79
2022/02/19 06:16:44;;;;;;;14.53;5.80;;;11.10;96.70;;;;;;5091454;27;20043;-79
2022/02/19 06:19:12;;;;;;;14.20;5.53;;;11.10;96.70;;;;;;5107176;27;20308;-80
2022/02/19 06:21:40;;;;;;;13.65;4.88;;;11.10;96.70;;;;;;5086790;27;20054;-80
2022/02/19 06:24:09;;;;;;;11.48;4.80;;;11.00;96.70;;;;;;5099670;28;20071;-80
2022/02/19 06:26:37;;;;;;;9.77;4.03;;;11.00;96.70;;;;;;5086801;27;20031;-80
2022/02/19 06:29:21;;;;;;;8.63;3.70;;;11.00;96.70;;;;;;5103918;27;20082;-79
2022/02/19 06:31:57;;;;;;;6.63;3.30;;;11.00;96.70;;;;;;5110029;27;20074;-80
2022/02/19 06:34:27;;;;;;;8.30;3.58;;;11.10;96.70;;;;;;5084610;28;20074;-79
2022/02/19 06:36:55;;;;;;;8.20;4.30;;;11.10;96.70;;;;;;5100011;27;20039;-78
2022/02/19 06:39:27;;;;;;;8.63;3.80;;;11.10;96.70;;;;;;5105807;27;20036;-78
2022/02/19 06:41:58;;;;;;;11.63;4.32;;;11.10;96.70;;;;;;5100232;28;20140;-80
2022/02/19 06:44:46;;;;;;;8.45;3.40;;;11.20;96.70;;;;;;5108525;27;20139;-81
2022/02/19 06:47:18;;;;;;;10.02;4.10;;;11.10;96.70;;;;;;5105747;28;20313;-80
2022/02/19 06:49:46;;;;;;;9.75;4.00;;;11.20;96.70;;;;;;5103123;28;20127;-79
2022/02/19 06:52:14;;;;;;;9.55;4.18;;;11.20;96.70;;;;;;5101559;28;20070;-77
2022/02/19 06:54:47;;;;;;;7.93;3.72;;;11.30;96.70;;;;;;5099094;28;20329;-80
2022/02/19 06:57:17;;;;;;;11.02;3.45;;;11.30;96.70;;;;;;5102806;28;20481;-81
2022/02/19 06:59:45;;;;;;;9.65;3.67;;;11.30;96.70;;;;;;5104215;28;20126;-80
2022/02/19 07:02:14;;;;;;;10.07;3.67;;;11.30;96.70;;;;;;5117689;27;20405;-82
2022/02/19 07:04:46;;;;;;;9.18;3.67;;;11.40;96.70;;;;;;5084993;28;20040;-82
2022/02/19 07:07:38;;;;;;;9.35;3.55;;;11.40;96.70;;;;;;5085755;28;21312;-82
2022/02/19 07:10:09;;;;;;;10.85;4.32;;;11.50;96.70;;;;;;5080555;28;20611;-82
2022/02/19 07:12:38;;;;;;;10.88;4.70;;;11.50;96.70;;;;;;5102393;28;20121;-82
2022/02/19 07:15:09;;;;;;;8.48;3.78;;;11.50;96.70;;;;;;5100137;27;21108;-81
2022/02/19 07:18:01;;;;;;;9.38;3.90;;;11.50;96.70;;;;;;5099881;28;20040;-82
2022/02/19 07:20:39;;;;;;;;;;;11.50;96.70;;;;;;5108445;28;20113;-82
2022/02/19 07:23:08;;;;;;;8.43;3.85;;;11.60;96.70;;;;;;5101772;28;20291;-81
2022/02/19 07:25:36;;;;;;;10.68;4.22;;;11.50;96.70;;;;;;5085131;28;20050;-82
2022/02/19 07:28:06;;;;;;;8.25;4.07;;;11.50;96.70;;;;;;5099139;28;20401;-82
2022/02/19 07:30:38;;;;;;;5.15;3.47;;;11.60;96.70;;;;;;5098480;28;20040;-80
2022/02/19 07:33:08;;;;;;;8.63;4.38;;;11.60;96.70;;;;;;5087348;27;20070;-82
2022/02/19 07:35:50;;;;;;;12.40;4.00;;;11.60;96.70;;;;;;5106553;27;20273;-81
2022/02/19 07:38:22;;;;;;;9.95;4.32;;;11.70;96.70;;;;;;5086727;27;20044;-82
2022/02/19 07:40:50;;;;;;;9.25;4.78;;;11.70;96.70;;;;;;5111130;27;20070;-79
2022/02/19 07:43:25;;;;;;;9.48;4.63;;;11.80;96.70;;;;;;5104028;27;20039;-82
2022/02/19 07:46:12;;;;;;;78.60;52.88;;;11.80;96.70;;;;;;5107206;27;20078;-82
2022/02/19 07:58:18;;;;;;;15.25;8.23;;;11.90;96.70;;;;;;5113010;27;20095;-82
2022/02/19 08:00:40;;;;;;;9.70;5.75;;;12.00;96.70;;;;;;5104354;27;20577;-83
2022/02/19 08:03:10;;;;;;;9.57;5.82;;;12.00;96.70;;;;;;5092770;28;20504;-83
2022/02/19 08:05:38;;;;;;;15.18;6.63;;;12.10;96.70;;;;;;5094109;27;20531;-83
2022/02/19 08:08:09;;;;;;;9.85;5.18;;;12.10;96.70;;;;;;5091607;27;20046;-83
2022/02/19 08:10:37;;;;;;;10.35;5.43;;;12.10;96.70;;;;;;5107002;27;20044;-83
2022/02/19 08:13:09;;;;;;;10.35;5.45;;;12.20;96.70;;;;;;5110729;27;20426;-81
2022/02/19 08:15:37;;;;;;;9.70;5.13;;;12.20;96.70;;;;;;5102545;27;20146;-81
2022/02/19 08:18:07;;;;;;;8.85;5.53;;;12.20;96.70;;;;;;5103256;27;20036;-82
2022/02/19 08:20:36;;;;;;;11.40;5.90;;;12.20;96.70;;;;;;5100984;27;20047;-80
2022/02/19 08:23:05;;;;;;;8.60;5.38;;;12.20;96.70;;;;;;5088503;27;20149;-81
2022/02/19 08:25:36;;;;;;;12.20;6.55;;;12.30;96.70;;;;;;5103779;27;20046;-81
2022/02/19 08:28:07;;;;;;;6.20;5.00;;;12.30;96.70;;;;;;5101602;27;20067;-81
2022/02/19 08:30:37;;;;;;;9.07;5.07;;;12.40;96.70;;;;;;5102410;27;20039;-81
2022/02/19 08:33:06;;;;;;;8.43;5.43;;;12.40;96.70;;;;;;5106513;27;20081;-81
2022/02/19 08:35:35;;;;;;;11.10;6.30;;;12.50;96.70;;;;;;5106174;27;20089;-82
2022/02/19 08:38:03;;;;;;;11.90;6.18;;;12.50;96.70;;;;;;5109033;27;20032;-81
2022/02/19 08:40:32;;;;;;;8.55;5.22;;;12.60;96.70;;;;;;5102186;27;20062;-81
2022/02/19 08:43:01;;;;;;;7.68;4.47;;;12.60;96.70;;;;;;5105372;27;20118;-81
2022/02/19 08:45:30;;;;;;;6.82;4.45;;;12.70;96.70;;;;;;5102722;27;20043;-81
2022/02/19 08:48:04;;;;;;;11.38;4.95;;;12.70;96.70;;;;;;5103415;27;20042;-82
2022/02/19 08:50:33;;;;;;;11.73;4.78;;;12.80;96.70;;;;;;5102464;27;20062;-81
2022/02/19 08:53:08;;;;;;;9.52;4.35;;;12.90;96.70;;;;;;5105057;27;20134;-79
2022/02/19 08:55:36;;;;;;;26.52;16.33;;;13.00;96.70;;;;;;5101081;27;20070;-82
2022/02/19 08:58:06;;;;;;;16.10;9.55;;;13.00;96.70;;;;;;5094347;27;20035;-81
2022/02/19 09:00:35;;;;;;;10.40;5.63;;;13.10;96.70;;;;;;5083616;27;20059;-82
2022/02/19 09:03:03;;;;;;;9.20;4.05;;;13.10;96.70;;;;;;5101997;27;20043;-82
2022/02/19 09:05:31;;;;;;;8.40;4.03;;;13.20;96.70;;;;;;5108718;27;20039;-80
2022/02/19 09:08:00;;;;;;;6.90;4.00;;;13.20;96.70;;;;;;5093416;27;20751;-80
2022/02/19 09:10:28;;;;;;;6.75;3.97;;;13.30;96.70;;;;;;5092269;27;20041;-81
2022/02/19 09:12:56;;;;;;;5.40;3.60;;;13.30;96.70;;;;;;5104089;27;20056;-82
2022/02/19 09:15:26;;;;;;;13.40;6.22;;;13.40;96.70;;;;;;5103847;27;20048;-82
2022/02/19 09:17:55;;;;;;;31.25;20.75;;;13.40;96.70;;;;;;5102366;27;20044;-82
2022/02/19 09:20:23;;;;;;;10.68;5.95;;;13.50;96.70;;;;;;5108703;27;20129;-81
2022/02/19 09:22:51;;;;;;;9.45;5.05;;;13.50;96.70;;;;;;5104767;27;20036;-82
2022/02/19 09:25:19;;;;;;;8.57;5.05;;;13.50;96.70;;;;;;5090451;28;20461;-82
2022/02/19 09:27:49;;;;;;;11.20;6.45;;;13.60;96.70;;;;;;5088001;28;20527;-81
2022/02/19 09:30:17;;;;;;;13.82;6.25;;;13.60;96.70;;;;;;5104755;27;20047;-82
2022/02/19 09:32:47;;;;;;;12.82;7.85;;;13.60;96.70;;;;;;5092016;27;20070;-81
2022/02/19 09:35:15;;;;;;;13.77;8.23;;;13.70;96.70;;;;;;5103666;27;20477;-82
2022/02/19 09:37:44;;;;;;;19.13;8.55;;;13.80;96.70;;;;;;5100751;27;20039;-81
2022/02/19 09:40:23;;;;;;;14.43;8.13;;;13.90;96.70;;;;;;5106723;27;20055;-82
2022/02/19 09:43:06;;;;;;;18.52;10.10;;;13.90;96.70;;;;;;5101837;27;20043;-81
2022/02/19 09:45:35;;;;;;;16.13;9.63;;;13.90;96.70;;;;;;5103238;27;20046;-81
2022/02/19 09:48:09;;;;;;;17.23;8.57;;;13.90;96.70;;;;;;5085633;28;20097;-81
2022/02/19 09:50:40;;;;;;;11.00;7.63;;;14.00;96.70;;;;;;5082229;28;20047;-81
2022/02/19 09:53:09;;;;;;;11.15;6.85;;;14.00;96.70;;;;;;5082990;27;20154;-81
2022/02/19 09:55:37;;;;;;;15.02;7.82;;;14.00;96.70;;;;;;5096424;27;20617;-82
2022/02/19 09:58:06;;;;;;;12.07;7.07;;;14.10;96.70;;;;;;5102532;27;20219;-82
2022/02/19 10:00:38;;;;;;;13.02;7.00;;;14.10;96.70;;;;;;5100996;27;20075;-81
2022/02/19 10:03:23;;;;;;;14.80;7.00;;;14.20;96.70;;;;;;5102206;27;20162;-81
2022/02/19 10:05:52;;;;;;;12.90;7.13;;;14.30;96.70;;;;;;5102623;27;20463;-81
2022/02/19 10:08:21;;;;;;;15.40;7.28;;;14.30;96.70;;;;;;5099748;27;20317;-81
2022/02/19 10:10:52;;;;;;;11.80;6.35;;;14.30;96.70;;;;;;5100078;28;20036;-80
2022/02/19 10:13:31;;;;;;;13.20;5.65;;;14.20;96.70;;;;;;5103197;27;20059;-81
2022/02/19 10:16:01;;;;;;;11.32;5.45;;;14.20;96.70;;;;;;5099249;27;20051;-81
2022/02/19 10:18:32;;;;;;;11.73;6.15;;;14.20;96.70;;;;;;5099128;27;20134;-81
2022/02/19 10:21:14;;;;;;;11.18;6.00;;;14.20;96.70;;;;;;5093114;27;20523;-81
2022/02/19 10:23:44;;;;;;;11.65;5.97;;;14.30;96.70;;;;;;5105704;27;20043;-83
2022/02/19 10:26:14;;;;;;;12.65;6.30;;;14.30;96.70;;;;;;5102538;27;20050;-82
2022/02/19 10:29:02;;;;;;;11.43;6.03;;;14.30;96.70;;;;;;5105827;27;20550;-82
2022/02/19 10:31:32;;;;;;;9.95;5.80;;;14.30;96.70;;;;;;5087066;27;20040;-81
2022/02/19 10:34:08;;;;;;;10.07;5.43;;;14.40;96.70;;;;;;5106528;27;20031;-81
2022/02/19 10:36:46;;;;;;;;;;;14.40;96.70;;;;;;5091521;27;20123;-83
2022/02/19 10:39:24;;;;;;;12.10;5.32;;;14.40;96.70;;;;;;5099788;27;20764;-82
2022/02/19 10:41:55;;;;;;;9.23;4.32;;;14.40;96.70;;;;;;5102491;27;20044;-81
2022/02/19 10:44:25;;;;;;;10.48;4.63;;;14.50;96.70;;;;;;5100674;27;20600;-82
2022/02/19 10:46:55;;;;;;;10.38;4.47;;;14.50;96.70;;;;;;5108523;28;20483;-83
2022/02/19 10:49:27;;;;;;;9.07;4.43;;;14.40;96.70;;;;;;5101282;27;20056;-82
2022/02/19 10:51:55;;;;;;;9.60;4.40;;;14.50;96.70;;;;;;5101532;28;20042;-82
2022/02/19 10:54:33;;;;;;;10.02;4.10;;;14.50;96.70;;;;;;5102592;28;20031;-82
2022/02/19 10:57:10;;;;;;;8.68;4.50;;;14.50;96.70;;;;;;5119395;27;20765;-81
2022/02/19 10:59:43;;;;;;;7.70;4.50;;;14.50;96.70;;;;;;5101667;28;20138;-84
2022/02/19 11:02:14;;;;;;;7.78;3.88;;;14.60;96.70;;;;;;5106017;28;20509;-83
2022/02/19 11:04:43;;;;;;;7.13;3.90;;;14.70;96.70;;;;;;5518825;22;20057;-86
2022/02/19 11:07:12;;;;;;;10.65;4.05;;;14.70;96.70;;;;;;5021607;28;20048;-83
2022/02/19 11:09:41;;;;;;;6.88;3.85;;;14.70;96.70;;;;;;5019963;28;20048;-81
2022/02/19 11:12:10;;;;;;;8.05;3.63;;;14.80;96.70;;;;;;5020272;28;20261;-81
2022/02/19 11:14:42;;;;;;;10.38;4.10;;;14.90;96.70;;;;;;5022382;28;20433;-81
2022/02/19 11:17:12;;;;;;;5.60;3.72;;;15.00;96.70;;;;;;5023924;28;20132;-80
2022/02/19 11:19:41;;;;;;;9.25;4.18;;;15.10;96.70;;;;;;5020758;28;20577;-80
2022/02/19 11:22:12;;;;;;;9.30;5.25;;;15.20;96.70;;;;;;5022337;28;20160;-80
2022/02/19 11:24:43;;;;;;;9.88;5.30;;;15.20;96.70;;;;;;5022558;28;20037;-81
2022/02/19 11:27:14;;;;;;;9.02;4.57;;;15.20;96.70;;;;;;5024558;28;20061;-80
2022/02/19 11:29:43;;;;;;;9.75;5.18;;;15.30;96.70;;;;;;5005176;28;20048;-81
2022/02/19 11:32:16;;;;;;;13.48;6.93;;;15.30;96.70;;;;;;5024104;28;21052;-80
2022/02/19 11:34:49;;;;;;;10.88;5.70;;;15.40;96.70;;;;;;5021722;28;20038;-79
2022/02/19 11:37:20;;;;;;;9.70;5.35;;;15.50;96.70;;;;;;5020125;28;20108;-81
2022/02/19 11:40:06;;;;;;;11.52;5.60;;;15.60;96.70;;;;;;5023663;28;20041;-81
2022/02/19 11:42:47;;;;;;;15.02;8.52;;;15.60;96.70;;;;;;5011798;28;20068;-81
2022/02/19 11:45:17;;;;;;;10.25;6.18;;;15.70;96.70;;;;;;5028691;28;20499;-81
2022/02/19 11:47:46;;;;;;;8.32;5.55;;;15.60;96.70;;;;;;5022124;28;20065;-81
2022/02/19 11:50:20;;;;;;;10.93;4.90;;;15.60;96.70;;;;;;5022025;28;20601;-82
2022/02/19 11:53:24;;;;;;;8.95;5.22;;;15.70;96.70;;;;;;5023312;28;20128;-80
2022/02/19 11:55:54;;;;;;;11.15;5.82;;;15.80;96.70;;;;;;5039461;28;20046;-81
2022/02/19 11:58:25;;;;;;;12.65;5.25;;;16.00;96.70;;;;;;5022662;28;20376;-80
2022/02/19 12:00:55;;;;;;;14.07;6.10;;;16.00;96.70;;;;;;5023535;28;20570;-81
2022/02/19 12:03:28;;;;;;;10.85;6.78;;;16.00;96.70;;;;;;5021897;28;20059;-80
2022/02/19 12:06:16;;;;;;;11.88;6.18;;;16.00;96.70;;;;;;5041881;28;20071;-80
2022/02/19 12:09:05;;;;;;;10.77;5.75;;;15.90;96.70;;;;;;5061571;28;20064;-80
2022/02/19 12:12:03;;;;;;;10.00;4.78;;;16.00;96.70;;;;;;5058633;28;20425;-84
2022/02/19 12:14:57;;;;;;;15.98;8.82;;;15.90;96.70;;;;;;5078776;28;20424;-85
2022/02/19 12:17:41;;;;;;;13.57;6.53;;;15.80;96.70;;;;;;5078715;28;20098;-84
2022/02/19 12:20:22;;;;;;;11.77;6.43;;;15.70;96.70;;;;;;5063529;28;20051;-84
2022/02/19 12:22:54;;;;;;;12.25;6.47;;;15.70;96.70;;;;;;5062568;28;20040;-84
2022/02/19 12:25:24;;;;;;;9.73;5.30;;;15.70;96.70;;;;;;5062257;28;20454;-84
2022/02/19 12:28:16;;;;;;;10.57;5.28;;;15.70;96.70;;;;;;5044881;28;20051;-85
2022/02/19 12:30:45;;;;;;;10.32;5.03;;;15.70;96.70;;;;;;5064387;28;20489;-85
2022/02/19 12:33:14;;;;;;;13.18;5.38;;;15.70;96.70;;;;;;5065247;28;20044;-84
2022/02/19 12:35:43;;;;;;;11.27;5.57;;;15.70;96.70;;;;;;5066091;28;20048;-82
2022/02/19 12:38:13;;;;;;;11.45;5.65;;;15.80;96.70;;;;;;5067328;28;20489;-83
2022/02/19 12:40:43;;;;;;;12.45;4.75;;;15.80;96.70;;;;;;5065127;28;20505;-82
2022/02/19 12:43:14;;;;;;;13.48;5.35;;;15.70;96.70;;;;;;5049267;28;20045;-83
2022/02/19 12:45:44;;;;;;;11.50;4.95;;;15.70;96.70;;;;;;5048362;28;20402;-83
2022/02/19 12:48:12;;;;;;;9.57;4.68;;;15.70;96.70;;;;;;5063154;28;20040;-78
2022/02/19 12:50:52;;;;;;;8.40;4.65;;;15.80;96.70;;;;;;5060034;28;20056;-79
2022/02/19 12:53:23;;;;;;;10.07;4.07;;;15.90;96.70;;;;;;5058396;28;20052;-80
2022/02/19 12:55:55;;;;;;;10.07;4.95;;;15.90;96.70;;;;;;5056478;28;20125;-79
2022/02/19 12:58:25;;;;;;;12.57;5.07;;;15.90;96.70;;;;;;5059314;28;20052;-79
2022/02/19 13:00:55;;;;;;;12.05;7.55;;;15.90;96.70;;;;;;5059268;28;20040;-79
2022/02/19 13:03:23;;;;;;;13.25;5.60;;;15.90;96.70;;;;;;5063243;28;20039;-83
2022/02/19 13:05:54;;;;;;;8.15;3.80;;;15.90;96.70;;;;;;5031660;28;20068;-82
2022/02/19 13:08:25;;;;;;;8.57;3.83;;;15.90;96.70;;;;;;5061544;28;20486;-82
2022/02/19 13:11:02;;;;;;;10.25;4.13;;;16.00;96.70;;;;;;5062243;28;20098;-82
2022/02/19 13:13:37;;;;;;;7.18;4.05;;;16.00;96.70;;;;;;5058518;28;20040;-82
2022/02/19 13:16:07;;;;;;;7.70;3.83;;;16.10;96.70;;;;;;5060809;28;20056;-84